Time;durP1;ratioP1;P1;durP2;ratioP2;P2;SDS_P1;SDS_P2;PMS_P1;PMS_P2;Temp;Humidity;BMP_temperature;BMP_pressure;BME280_temperature;BME280_humidity;BME280_pressure;Samples;Min_cycle;Max_cycle;Signal;HPM_P1;HPM_P2
2021/07/02 00:01:58;;;;;;;3.22;1.27;;;25.30;47.00;;;;;;5056314;28;20050;-68
2021/07/02 00:04:24;;;;;;;2.50;1.33;;;25.30;47.20;;;;;;5054667;28;20033;-67
2021/07/02 00:06:49;;;;;;;6.65;1.55;;;25.20;46.60;;;;;;5054085;28;20468;-68
2021/07/02 00:09:15;;;;;;;1.50;0.80;;;25.20;44.50;;;;;;5061711;28;20048;-67
2021/07/02 00:11:41;;;;;;;1.33;0.90;;;25.30;45.00;;;;;;5061278;28;20037;-67
2021/07/02 00:14:06;;;;;;;2.40;1.10;;;25.20;44.30;;;;;;5064778;28;20517;-68
2021/07/02 00:16:34;;;;;;;1.48;1.02;;;25.20;44.80;;;;;;5057715;28;20501;-67
2021/07/02 00:19:00;;;;;;;2.05;1.40;;;25.20;44.40;;;;;;5063004;28;20048;-68
2021/07/02 00:21:26;;;;;;;1.42;1.20;;;25.20;43.90;;;;;;5066707;28;20078;-67
2021/07/02 00:23:51;;;;;;;3.53;1.10;;;25.10;42.90;;;;;;5066908;28;20041;-66
2021/07/02 00:26:17;;;;;;;0.95;0.93;;;25.10;43.00;;;;;;5074665;28;20040;-67
2021/07/02 00:28:42;;;;;;;1.60;0.80;;;25.00;41.90;;;;;;5065030;28;20722;-68
2021/07/02 00:31:08;;;;;;;1.33;1.20;;;25.10;43.20;;;;;;5069046;28;20089;-68
2021/07/02 00:33:34;;;;;;;2.30;1.10;;;25.00;42.90;;;;;;5050089;28;20081;-68
2021/07/02 00:35:59;;;;;;;0.85;0.70;;;25.00;42.30;;;;;;5049950;28;20060;-68
2021/07/02 00:38:25;;;;;;;0.73;0.68;;;24.90;41.30;;;;;;5049969;28;20040;-67
2021/07/02 00:40:50;;;;;;;3.22;1.05;;;25.00;40.50;;;;;;5056638;28;20544;-64
2021/07/02 00:43:16;;;;;;;1.17;0.82;;;25.00;41.30;;;;;;5040541;28;20033;-68
2021/07/02 00:45:42;;;;;;;1.17;1.08;;;24.90;41.40;;;;;;5059307;28;20101;-67
2021/07/02 00:48:07;;;;;;;1.42;1.00;;;25.00;40.50;;;;;;5049755;28;20559;-68
2021/07/02 00:50:33;;;;;;;2.08;1.10;;;25.00;40.50;;;;;;5048885;28;20041;-67
2021/07/02 00:52:59;;;;;;;2.40;1.15;;;25.00;40.40;;;;;;5066991;28;20029;-67
2021/07/02 00:55:25;;;;;;;1.50;1.00;;;25.00;39.10;;;;;;5043734;28;20391;-67
2021/07/02 00:57:50;;;;;;;2.45;1.10;;;24.90;40.30;;;;;;5065408;28;20033;-55
2021/07/02 01:00:16;;;;;;;1.63;1.42;;;24.90;40.40;;;;;;5058138;28;20118;-68
2021/07/02 01:02:42;;;;;;;2.25;1.27;;;24.80;40.90;;;;;;5049704;28;20045;-67
2021/07/02 01:05:08;;;;;;;2.17;1.55;;;24.80;42.00;;;;;;5047723;28;20552;-67
2021/07/02 01:07:34;;;;;;;1.73;1.25;;;24.80;42.80;;;;;;5057498;28;20486;-67
2021/07/02 01:10:00;;;;;;;2.35;1.40;;;24.70;43.80;;;;;;5046077;28;20033;-67
2021/07/02 01:12:27;;;;;;;5.50;1.90;;;24.60;45.60;;;;;;5062420;28;20109;-68
2021/07/02 01:14:53;;;;;;;10.48;2.15;;;24.60;49.20;;;;;;5056046;28;20041;-67
2021/07/02 01:17:18;;;;;;;6.30;2.08;;;24.60;49.60;;;;;;5059058;28;20041;-67
2021/07/02 01:19:49;;;;;;;5.18;1.95;;;24.60;51.50;;;;;;5064132;28;20040;-67
2021/07/02 01:22:26;;;;;;;4.70;1.90;;;24.60;54.00;;;;;;5078872;28;20086;-67
2021/07/02 01:24:56;;;;;;;3.65;2.33;;;24.50;54.50;;;;;;5039300;28;20467;-68
2021/07/02 01:27:22;;;;;;;7.93;2.92;;;24.40;56.70;;;;;;5063150;28;20469;-67
2021/07/02 01:29:48;;;;;;;10.75;3.40;;;24.30;56.60;;;;;;5040473;28;20037;-68
2021/07/02 01:32:18;;;;;;;7.85;2.35;;;24.30;58.00;;;;;;5061051;28;20059;-67
2021/07/02 01:34:44;;;;;;;8.90;2.55;;;24.30;59.20;;;;;;5060653;28;20068;-68
2021/07/02 01:37:10;;;;;;;7.80;2.45;;;24.30;60.50;;;;;;5039208;28;20071;-67
2021/07/02 01:39:39;;;;;;;7.05;3.00;;;24.20;60.10;;;;;;5060094;28;20043;-67
2021/07/02 01:42:08;;;;;;;6.95;2.55;;;24.10;60.70;;;;;;5059113;28;20032;-67
2021/07/02 01:44:35;;;;;;;4.63;1.92;;;24.10;62.50;;;;;;5049623;28;20036;-67
2021/07/02 01:47:01;;;;;;;10.45;3.25;;;24.10;61.30;;;;;;5054071;28;20037;-67
2021/07/02 01:49:26;;;;;;;8.30;3.03;;;24.10;61.30;;;;;;5043222;28;20596;-66
2021/07/02 01:51:52;;;;;;;8.00;2.80;;;24.10;62.30;;;;;;5036861;28;20079;-67
2021/07/02 01:54:18;;;;;;;9.20;2.33;;;24.10;62.30;;;;;;5032060;28;20032;-68
2021/07/02 01:56:48;;;;;;;8.30;2.28;;;24.00;62.60;;;;;;5048599;28;20158;-67
2021/07/02 01:59:18;;;;;;;6.22;2.70;;;24.00;62.90;;;;;;5059531;28;20036;-68
2021/07/02 02:01:46;;;;;;;7.78;2.70;;;24.10;63.10;;;;;;5051252;28;20037;-67
2021/07/02 02:04:11;;;;;;;8.05;2.95;;;24.00;63.30;;;;;;5060865;28;20036;-69
2021/07/02 02:06:37;;;;;;;4.35;2.25;;;24.10;63.40;;;;;;5047405;28;20033;-67
2021/07/02 02:09:04;;;;;;;4.68;2.45;;;24.00;64.00;;;;;;5052315;28;20029;-68
2021/07/02 02:11:30;;;;;;;3.45;2.70;;;24.00;64.00;;;;;;5053367;28;20029;-67
2021/07/02 02:13:56;;;;;;;9.35;2.65;;;24.00;63.40;;;;;;5050782;28;20043;-66
2021/07/02 02:16:22;;;;;;;5.22;2.38;;;24.10;65.60;;;;;;5052595;28;20490;-66
2021/07/02 02:18:47;;;;;;;3.90;2.42;;;24.10;65.10;;;;;;5051974;28;20089;-67
2021/07/02 02:21:13;;;;;;;3.38;2.20;;;24.10;64.30;;;;;;5062419;28;20036;-67
2021/07/02 02:23:39;;;;;;;4.25;2.38;;;24.10;64.80;;;;;;5050422;28;20514;-67
2021/07/02 02:26:05;;;;;;;3.45;2.17;;;24.00;64.70;;;;;;5051392;28;20047;-68
2021/07/02 02:28:30;;;;;;;5.72;2.20;;;24.00;64.80;;;;;;5039345;28;20464;-67
2021/07/02 02:30:56;;;;;;;4.22;2.20;;;24.00;65.30;;;;;;5059256;28;20437;-67
2021/07/02 02:33:21;;;;;;;5.88;2.20;;;23.80;67.20;;;;;;5053224;28;20109;-67
2021/07/02 02:35:47;;;;;;;3.55;1.95;;;23.90;67.90;;;;;;5071814;28;20131;-67
2021/07/02 02:38:13;;;;;;;7.22;2.40;;;24.00;66.50;;;;;;5067594;28;20028;-67
2021/07/02 02:40:38;;;;;;;6.57;2.88;;;23.90;66.10;;;;;;5059967;28;20033;-67
2021/07/02 02:43:04;;;;;;;3.42;2.13;;;24.00;67.30;;;;;;5042271;28;20047;-67
2021/07/02 02:45:30;;;;;;;3.67;2.08;;;23.90;66.40;;;;;;5061502;28;20497;-67
2021/07/02 02:47:55;;;;;;;2.83;2.20;;;23.90;66.20;;;;;;5075910;28;20042;-66
2021/07/02 02:50:21;;;;;;;6.07;3.42;;;23.90;66.30;;;;;;5040451;28;20041;-62
2021/07/02 02:52:47;;;;;;;8.30;3.00;;;23.90;66.60;;;;;;5050672;28;20083;-67
2021/07/02 02:55:13;;;;;;;4.65;2.88;;;23.90;67.00;;;;;;5048467;28;20076;-67
2021/07/02 02:57:38;;;;;;;5.40;2.47;;;23.80;68.00;;;;;;5065205;28;20037;-68
2021/07/02 03:00:07;;;;;;;8.43;2.80;;;23.80;67.70;;;;;;5059818;28;20071;-67
2021/07/02 03:02:33;;;;;;;7.38;2.70;;;23.80;68.90;;;;;;5066681;28;20041;-67
2021/07/02 03:04:58;;;;;;;3.53;2.83;;;23.70;68.40;;;;;;5052841;28;20039;-67
2021/07/02 03:07:24;;;;;;;5.45;2.63;;;23.50;69.10;;;;;;5062464;28;20113;-67
2021/07/02 03:09:49;;;;;;;5.03;2.58;;;23.70;69.00;;;;;;5061152;28;20036;-67
2021/07/02 03:12:15;;;;;;;3.80;2.33;;;23.80;68.50;;;;;;5067638;28;20060;-68
2021/07/02 03:14:41;;;;;;;3.78;2.20;;;23.80;68.70;;;;;;5058259;28;21030;-68
2021/07/02 03:17:06;;;;;;;6.18;2.72;;;23.80;67.90;;;;;;5074197;28;20041;-67
2021/07/02 03:19:32;;;;;;;2.92;2.50;;;23.70;68.20;;;;;;5067160;28;20132;-68
2021/07/02 03:21:57;;;;;;;2.90;2.70;;;23.70;68.40;;;;;;5045686;28;20120;-68
2021/07/02 03:24:23;;;;;;;4.68;2.83;;;23.70;68.30;;;;;;5073858;28;20474;-67
2021/07/02 03:26:48;;;;;;;3.53;2.88;;;23.70;68.40;;;;;;5075651;28;20035;-67
2021/07/02 03:29:14;;;;;;;5.32;2.97;;;23.70;68.50;;;;;;5057934;28;20041;-67
2021/07/02 03:31:40;;;;;;;7.30;2.83;;;23.60;69.20;;;;;;5052155;28;20048;-67
2021/07/02 03:34:05;;;;;;;5.15;2.78;;;23.70;69.90;;;;;;5056171;28;20112;-67
2021/07/02 03:36:32;;;;;;;6.97;2.70;;;23.60;69.50;;;;;;5053046;28;20067;-67
2021/07/02 03:38:58;;;;;;;6.57;2.50;;;23.70;70.00;;;;;;5052687;28;20094;-68
2021/07/02 03:41:24;;;;;;;8.13;3.22;;;23.70;69.90;;;;;;5048309;28;20401;-67
2021/07/02 03:43:49;;;;;;;4.57;2.92;;;23.60;69.80;;;;;;5050174;28;20443;-68
2021/07/02 03:46:15;;;;;;;5.22;2.75;;;23.60;70.30;;;;;;5073123;28;20486;-68
2021/07/02 03:48:41;;;;;;;4.43;2.47;;;23.50;69.60;;;;;;5069402;28;20033;-67
2021/07/02 03:51:07;;;;;;;4.18;2.30;;;23.50;70.70;;;;;;5063248;28;20044;-68
2021/07/02 03:53:32;;;;;;;5.28;2.65;;;23.60;71.30;;;;;;5059524;28;20071;-68
2021/07/02 03:55:58;;;;;;;3.20;1.90;;;23.40;70.30;;;;;;5049560;28;20502;-68
2021/07/02 03:58:24;;;;;;;3.30;2.40;;;23.50;70.90;;;;;;5047729;28;20485;-67
2021/07/02 04:00:49;;;;;;;4.32;2.30;;;23.60;69.60;;;;;;5052129;28;20086;-67
2021/07/02 04:03:15;;;;;;;5.38;2.70;;;23.50;70.50;;;;;;5038576;28;20129;-67
2021/07/02 04:05:43;;;;;;;5.55;2.72;;;23.50;69.90;;;;;;5064277;28;20649;-67
2021/07/02 04:08:09;;;;;;;4.95;2.50;;;23.40;71.30;;;;;;5056686;28;20116;-67
2021/07/02 04:10:35;;;;;;;3.78;2.78;;;23.40;71.10;;;;;;5052612;28;20164;-67
2021/07/02 04:13:16;;;;;;;3.60;2.38;;;23.40;71.10;;;;;;5045900;28;20037;-66
2021/07/02 04:15:42;;;;;;;6.35;2.28;;;23.40;73.10;;;;;;5052697;28;20418;-68
2021/07/02 04:18:07;;;;;;;2.70;2.33;;;23.40;70.70;;;;;;5043503;28;20037;-66
2021/07/02 04:20:34;;;;;;;8.20;2.40;;;23.20;71.40;;;;;;5049643;28;20033;-66
2021/07/02 04:23:00;;;;;;;5.45;2.85;;;23.20;72.30;;;;;;5045230;28;20036;-66
2021/07/02 04:25:26;;;;;;;3.78;2.70;;;23.30;71.60;;;;;;5065809;28;20424;-67
2021/07/02 04:27:51;;;;;;;3.38;2.20;;;23.20;72.20;;;;;;5060312;28;20072;-61
2021/07/02 04:30:18;;;;;;;7.30;2.50;;;23.40;72.20;;;;;;5064912;28;20037;-67
2021/07/02 04:32:44;;;;;;;4.60;2.17;;;23.30;71.60;;;;;;5061873;28;20427;-67
2021/07/02 04:35:10;;;;;;;5.82;3.35;;;23.40;71.50;;;;;;5053526;28;20138;-68
2021/07/02 04:37:40;;;;;;;2.95;2.60;;;23.30;72.70;;;;;;5062468;28;20037;-69
2021/07/02 04:40:08;;;;;;;2.55;2.30;;;23.30;71.80;;;;;;5061322;28;20339;-68
2021/07/02 04:42:34;;;;;;;3.72;2.50;;;23.40;72.30;;;;;;5053363;27;20048;-68
2021/07/02 04:45:00;;;;;;;4.18;2.50;;;23.30;72.80;;;;;;5057622;28;20036;-68
2021/07/02 04:47:26;;;;;;;5.63;3.03;;;23.30;72.40;;;;;;5055374;28;20038;-68
2021/07/02 04:49:52;;;;;;;5.20;2.63;;;23.30;71.80;;;;;;5038005;28;20526;-67
2021/07/02 04:52:17;;;;;;;3.50;2.55;;;23.40;71.60;;;;;;5066033;28;20085;-68
2021/07/02 04:54:43;;;;;;;3.97;2.40;;;23.30;72.00;;;;;;5063594;28;20055;-68
2021/07/02 04:57:09;;;;;;;6.85;2.60;;;23.40;71.60;;;;;;5065954;28;20044;-68
2021/07/02 04:59:37;;;;;;;3.72;2.05;;;23.50;71.80;;;;;;5053635;28;20037;-67
2021/07/02 05:02:03;;;;;;;4.93;2.20;;;23.60;70.20;;;;;;5068033;28;20040;-67
2021/07/02 05:04:29;;;;;;;4.32;2.33;;;23.60;70.10;;;;;;5064681;28;20032;-67
2021/07/02 05:06:55;;;;;;;6.78;2.45;;;23.60;70.60;;;;;;5048983;28;20044;-68
2021/07/02 05:09:21;;;;;;;3.45;2.10;;;23.60;70.10;;;;;;5051609;28;20041;-68
2021/07/02 05:11:48;;;;;;;3.95;2.15;;;23.70;69.50;;;;;;5053205;28;20039;-68
2021/07/02 05:14:13;;;;;;;8.70;2.25;;;23.60;69.80;;;;;;5054408;28;20043;-68
2021/07/02 05:16:39;;;;;;;2.47;2.05;;;23.60;69.60;;;;;;5054474;28;20048;-68
2021/07/02 05:19:04;;;;;;;4.32;2.30;;;23.60;68.40;;;;;;5056838;28;20371;-68
2021/07/02 05:21:30;;;;;;;3.30;2.10;;;23.50;67.70;;;;;;5066642;28;20110;-68
2021/07/02 05:23:56;;;;;;;4.13;2.10;;;23.60;68.00;;;;;;5050952;28;20071;-68
2021/07/02 05:26:21;;;;;;;4.13;2.08;;;23.60;67.20;;;;;;5063499;28;20072;-68
2021/07/02 05:28:47;;;;;;;3.47;2.03;;;23.60;67.80;;;;;;5059228;28;20389;-68
2021/07/02 05:31:14;;;;;;;3.33;1.67;;;23.60;67.60;;;;;;5042906;28;20040;-68
2021/07/02 05:33:40;;;;;;;5.20;1.70;;;23.70;68.50;;;;;;5068766;28;20051;-68
2021/07/02 05:36:06;;;;;;;4.43;2.10;;;23.70;68.40;;;;;;5061345;28;20439;-68
2021/07/02 05:38:32;;;;;;;4.93;2.05;;;23.70;68.10;;;;;;5061815;28;20033;-69
2021/07/02 05:40:57;;;;;;;2.38;2.15;;;23.80;67.80;;;;;;5056006;28;20071;-67
2021/07/02 05:43:24;;;;;;;3.35;1.95;;;23.70;67.20;;;;;;5049897;28;20039;-67
2021/07/02 05:45:49;;;;;;;3.05;1.80;;;23.80;66.90;;;;;;5050370;28;20036;-68
2021/07/02 05:48:18;;;;;;;4.80;1.90;;;23.70;66.80;;;;;;5061547;28;20086;-68
2021/07/02 05:50:44;;;;;;;4.68;1.75;;;23.80;66.40;;;;;;5055835;28;20036;-68
2021/07/02 05:53:09;;;;;;;4.78;1.73;;;23.80;65.70;;;;;;5052680;28;20041;-68
2021/07/02 05:55:35;;;;;;;2.00;1.90;;;23.80;66.50;;;;;;5059131;28;20063;-68
2021/07/02 05:58:01;;;;;;;3.70;1.50;;;23.90;64.80;;;;;;5062490;28;20029;-67
2021/07/02 06:00:27;;;;;;;2.70;1.60;;;23.90;65.50;;;;;;5067991;28;20767;-68
2021/07/02 06:02:53;;;;;;;4.00;2.00;;;23.90;64.00;;;;;;5067496;28;20036;-66
2021/07/02 06:05:19;;;;;;;2.58;1.80;;;23.90;64.90;;;;;;5061284;28;20090;-67
2021/07/02 06:07:49;;;;;;;3.15;2.25;;;24.00;64.10;;;;;;5068209;28;20473;-67
2021/07/02 06:10:18;;;;;;;3.20;2.30;;;24.00;64.00;;;;;;5058129;28;20137;-67
2021/07/02 06:12:44;;;;;;;5.68;2.45;;;24.10;63.30;;;;;;5049727;28;20073;-67
2021/07/02 06:15:12;;;;;;;2.83;2.05;;;24.20;63.30;;;;;;5051338;28;20131;-67
2021/07/02 06:17:38;;;;;;;3.75;1.95;;;24.30;61.40;;;;;;5048312;28;20048;-67
2021/07/02 06:20:04;;;;;;;4.53;1.70;;;24.30;61.90;;;;;;5071243;28;20063;-67
2021/07/02 06:22:30;;;;;;;3.17;1.63;;;24.30;61.90;;;;;;5041114;28;20390;-67
2021/07/02 06:24:55;;;;;;;6.30;2.13;;;24.40;61.70;;;;;;5058158;28;20032;-68
2021/07/02 06:27:21;;;;;;;4.95;2.08;;;24.50;60.80;;;;;;5053802;28;20059;-67
2021/07/02 06:29:47;;;;;;;7.50;2.20;;;24.50;60.90;;;;;;5050990;28;20036;-67
2021/07/02 06:32:13;;;;;;;7.22;2.28;;;24.60;60.90;;;;;;5049837;28;20043;-67
2021/07/02 06:34:38;;;;;;;3.33;2.15;;;24.60;60.80;;;;;;5057873;28;20206;-66
2021/07/02 06:37:04;;;;;;;3.38;2.40;;;24.50;60.80;;;;;;5073010;28;20032;-68
2021/07/02 06:39:29;;;;;;;4.38;2.10;;;24.60;61.20;;;;;;5060332;28;20036;-67
2021/07/02 06:41:55;;;;;;;3.40;2.13;;;24.50;59.80;;;;;;5035727;28;20036;-67
2021/07/02 06:44:21;;;;;;;3.72;2.28;;;24.50;60.70;;;;;;5048132;28;20068;-68
2021/07/02 06:46:46;;;;;;;3.90;2.05;;;24.60;60.50;;;;;;5054080;28;20048;-68
2021/07/02 06:49:13;;;;;;;5.05;1.88;;;24.60;60.30;;;;;;5056051;28;20044;-68
2021/07/02 06:51:38;;;;;;;4.80;2.33;;;24.60;59.90;;;;;;5058289;28;20045;-68
2021/07/02 06:54:04;;;;;;;3.50;2.30;;;24.50;60.00;;;;;;5052592;28;20048;-68
2021/07/02 06:56:31;;;;;;;4.00;2.20;;;24.60;59.70;;;;;;5048746;28;20037;-68
2021/07/02 06:58:57;;;;;;;5.20;2.00;;;24.70;59.70;;;;;;5047969;28;20099;-68
2021/07/02 07:01:24;;;;;;;4.38;2.53;;;24.70;59.50;;;;;;5058364;28;22248;-67
2021/07/02 07:03:49;;;;;;;5.47;2.38;;;24.80;59.50;;;;;;5043488;28;20402;-68
2021/07/02 07:06:15;;;;;;;4.47;2.13;;;24.80;59.30;;;;;;5058322;28;20033;-68
2021/07/02 07:08:41;;;;;;;1.88;1.77;;;24.90;58.90;;;;;;5050718;28;20033;-68
2021/07/02 07:11:07;;;;;;;6.75;2.10;;;24.90;57.90;;;;;;5064604;28;20028;-69
2021/07/02 07:13:32;;;;;;;3.30;2.22;;;25.10;58.30;;;;;;5050388;28;20398;-68
2021/07/02 07:15:58;;;;;;;5.40;2.17;;;25.00;57.50;;;;;;5054948;28;20128;-68
2021/07/02 07:18:23;;;;;;;3.83;2.38;;;25.00;57.50;;;;;;5048098;28;20033;-68
2021/07/02 07:20:49;;;;;;;3.42;2.03;;;25.00;57.60;;;;;;5068553;28;20036;-68
2021/07/02 07:23:15;;;;;;;2.70;1.90;;;25.10;57.70;;;;;;5056210;28;20032;-68
2021/07/02 07:25:41;;;;;;;4.00;2.15;;;25.00;57.70;;;;;;5051293;28;20033;-68
2021/07/02 07:28:06;;;;;;;3.95;1.75;;;25.10;57.10;;;;;;5046873;28;20056;-69
2021/07/02 07:30:32;;;;;;;2.80;1.67;;;25.10;56.80;;;;;;5047349;28;20037;-68
2021/07/02 07:32:57;;;;;;;3.85;2.25;;;25.20;56.20;;;;;;5058595;28;20040;-68
2021/07/02 07:35:35;;;;;;;4.32;2.20;;;25.20;56.20;;;;;;5061349;28;20076;-66
2021/07/02 07:38:01;;;;;;;1.80;1.70;;;25.30;55.90;;;;;;5056903;28;20052;-67
2021/07/02 07:40:29;;;;;;;4.10;2.03;;;25.30;56.00;;;;;;5061126;28;20032;-67
2021/07/02 07:42:54;;;;;;;5.75;2.33;;;25.30;56.50;;;;;;5070512;28;20033;-66
2021/07/02 07:45:21;;;;;;;4.65;1.98;;;25.30;56.00;;;;;;5053175;28;20482;-67
2021/07/02 07:47:47;;;;;;;3.33;2.08;;;25.20;56.80;;;;;;5056960;28;20036;-67
2021/07/02 07:50:15;;;;;;;6.50;1.80;;;25.50;56.30;;;;;;5046020;28;20044;-67
2021/07/02 07:55:11;;;;;;;3.65;2.40;;;25.40;56.70;;;;;;5064140;28;20119;-67
2021/07/02 07:57:36;;;;;;;3.83;3.00;;;25.40;56.80;;;;;;5062046;28;20039;-67
2021/07/02 08:00:05;;;;;;;5.30;2.47;;;25.50;56.90;;;;;;5063142;28;20041;-67
2021/07/02 08:02:30;;;;;;;5.40;2.58;;;25.50;57.30;;;;;;5059889;28;20033;-67
2021/07/02 08:04:56;;;;;;;8.02;2.50;;;25.40;57.70;;;;;;5057801;28;20156;-67
2021/07/02 08:07:21;;;;;;;5.25;2.28;;;25.50;57.30;;;;;;5060563;28;20036;-67
2021/07/02 08:09:47;;;;;;;4.07;2.55;;;25.70;57.80;;;;;;5054490;28;20043;-67
2021/07/02 08:12:13;;;;;;;5.03;2.95;;;25.70;57.70;;;;;;5044944;28;20033;-68
2021/07/02 08:14:38;;;;;;;4.22;3.00;;;25.80;58.00;;;;;;5056609;28;20037;-68
2021/07/02 08:17:04;;;;;;;4.68;2.72;;;26.00;57.70;;;;;;5064080;28;20118;-68
2021/07/02 08:19:30;;;;;;;9.60;3.60;;;26.00;57.90;;;;;;5062485;28;20103;-68
2021/07/02 08:21:55;;;;;;;3.25;2.42;;;26.10;57.60;;;;;;5057664;28;20045;-67
2021/07/02 08:24:21;;;;;;;3.58;1.98;;;26.10;56.90;;;;;;5068517;28;20123;-68
2021/07/02 08:26:49;;;;;;;6.03;3.13;;;26.10;56.40;;;;;;5051549;28;20493;-69
2021/07/02 08:29:26;;;;;;;3.40;2.20;;;26.30;56.30;;;;;;5048333;28;20041;-68
2021/07/02 08:31:52;;;;;;;2.45;2.25;;;26.30;55.80;;;;;;5062763;28;20505;-68
2021/07/02 08:34:18;;;;;;;6.85;2.72;;;26.30;55.90;;;;;;5063417;28;20430;-68
2021/07/02 08:36:44;;;;;;;6.80;2.22;;;26.30;55.70;;;;;;5056386;28;20052;-68
2021/07/02 08:39:10;;;;;;;3.33;2.38;;;26.20;55.30;;;;;;5068187;28;20072;-67
2021/07/02 08:41:38;;;;;;;3.05;2.75;;;26.30;55.30;;;;;;5063002;28;20486;-68
2021/07/02 08:44:04;;;;;;;4.07;2.95;;;26.30;55.60;;;;;;5063779;28;20037;-67
2021/07/02 08:46:30;;;;;;;3.30;2.20;;;26.30;55.40;;;;;;5055593;28;20120;-67
2021/07/02 08:48:56;;;;;;;3.42;3.00;;;26.30;54.70;;;;;;5063053;28;20115;-67
2021/07/02 08:51:23;;;;;;;5.10;2.78;;;26.40;54.70;;;;;;5062911;28;20036;-68
2021/07/02 08:53:49;;;;;;;4.13;3.00;;;26.40;54.70;;;;;;5046338;28;20058;-68
2021/07/02 08:56:18;;;;;;;7.05;3.08;;;26.60;54.60;;;;;;5067785;28;20045;-69
2021/07/02 08:58:44;;;;;;;3.03;2.40;;;26.60;54.70;;;;;;5051014;28;20557;-68
2021/07/02 09:01:29;;;;;;;6.32;2.88;;;26.70;54.10;;;;;;5069252;28;20039;-68
2021/07/02 09:03:55;;;;;;;5.07;3.47;;;26.60;54.60;;;;;;5041966;28;20047;-67
2021/07/02 09:06:21;;;;;;;3.85;2.70;;;26.60;54.40;;;;;;5061187;28;20044;-68
2021/07/02 09:09:02;;;;;;;4.15;2.78;;;26.70;54.20;;;;;;5052305;28;20032;-68
2021/07/02 09:11:34;;;;;;;4.65;2.85;;;26.90;53.40;;;;;;5036892;28;20035;-68
2021/07/02 09:14:01;;;;;;;3.75;2.90;;;26.90;53.80;;;;;;5055724;28;20037;-68
2021/07/02 09:16:34;;;;;;;3.75;2.75;;;26.60;53.70;;;;;;5052718;28;20106;-67
2021/07/02 09:19:28;;;;;;;7.25;6.60;;;26.70;53.80;;;;;;5059715;28;20041;-67
2021/07/02 09:22:17;;;;;;;5.18;2.92;;;26.90;52.40;;;;;;5065405;28;20094;-66
2021/07/02 09:24:48;;;;;;;2.92;2.65;;;27.00;53.20;;;;;;5042324;28;20049;-67
2021/07/02 09:27:31;;;;;;;4.97;3.80;;;27.10;52.10;;;;;;5054815;28;20050;-68
2021/07/02 09:30:00;;;;;;;3.90;2.73;;;27.20;53.80;;;;;;5057925;28;20048;-68
2021/07/02 09:32:25;;;;;;;6.20;4.30;;;27.30;52.90;;;;;;5068275;28;20251;-67
2021/07/02 09:34:55;;;;;;;4.63;2.80;;;27.10;51.70;;;;;;5049890;28;20513;-68
2021/07/02 09:37:22;;;;;;;3.00;2.67;;;27.10;53.00;;;;;;5059731;28;20112;-69
2021/07/02 09:39:48;;;;;;;4.75;2.95;;;27.10;52.70;;;;;;5042954;28;20065;-68
2021/07/02 09:42:29;;;;;;;2.97;2.78;;;27.00;52.40;;;;;;5057205;28;20513;-68
2021/07/02 09:45:11;;;;;;;4.18;3.15;;;27.30;52.40;;;;;;5041758;28;20045;-66
2021/07/02 09:47:39;;;;;;;4.95;3.00;;;27.30;51.80;;;;;;5052883;28;20030;-68
2021/07/02 09:50:14;;;;;;;6.57;3.30;;;27.40;51.70;;;;;;5050045;28;20032;-68
2021/07/02 09:52:46;;;;;;;7.72;4.00;;;27.30;51.10;;;;;;5053311;28;20032;-68
2021/07/02 09:55:13;;;;;;;4.28;3.13;;;27.60;51.80;;;;;;5047719;28;20060;-68
2021/07/02 09:57:38;;;;;;;4.18;3.38;;;27.70;51.30;;;;;;5041992;28;20355;-68
2021/07/02 10:00:26;;;;;;;6.30;4.40;;;27.70;51.00;;;;;;5041183;28;20036;-68
2021/07/02 10:03:00;;;;;;;6.10;3.50;;;27.80;50.60;;;;;;5031921;28;20034;-68
2021/07/02 10:05:26;;;;;;;6.75;3.78;;;28.00;50.70;;;;;;5027360;28;20090;-67
2021/07/02 10:08:04;;;;;;;5.97;3.22;;;27.90;49.60;;;;;;5022033;28;20041;-68
2021/07/02 10:10:31;;;;;;;6.15;3.30;;;28.10;49.50;;;;;;5014172;28;20055;-68
2021/07/02 10:13:19;;;;;;;6.95;3.92;;;28.20;49.70;;;;;;5036493;28;20503;-69
2021/07/02 10:15:45;;;;;;;3.63;3.30;;;28.20;49.20;;;;;;5012165;28;20053;-69
2021/07/02 10:18:14;;;;;;;3.95;3.42;;;28.20;48.80;;;;;;5035172;28;20052;-69
2021/07/02 10:20:41;;;;;;;4.10;3.10;;;28.30;48.30;;;;;;5045425;28;20543;-69
2021/07/02 10:23:08;;;;;;;6.00;3.28;;;28.40;48.50;;;;;;5036731;28;20029;-69
2021/07/02 10:25:33;;;;;;;4.97;3.38;;;28.30;49.00;;;;;;5042262;28;20044;-69
2021/07/02 10:27:59;;;;;;;4.90;3.40;;;28.30;48.20;;;;;;5038229;28;20033;-69
2021/07/02 10:30:26;;;;;;;7.25;3.67;;;28.20;48.10;;;;;;5040365;28;20120;-70
2021/07/02 10:32:57;;;;;;;3.85;3.42;;;28.40;48.10;;;;;;5039922;28;20049;-69
2021/07/02 10:35:24;;;;;;;4.95;3.60;;;28.60;47.70;;;;;;5039419;28;20545;-69
2021/07/02 10:37:55;;;;;;;6.13;4.63;;;28.90;47.00;;;;;;5030616;28;20037;-69
2021/07/02 10:40:41;;;;;;;3.70;3.03;;;29.00;46.10;;;;;;5029709;28;21103;-70
2021/07/02 10:43:13;;;;;;;73.43;13.65;;;29.20;45.10;;;;;;4987568;28;20033;-70
2021/07/02 10:49:07;;;;;;;4.07;3.78;;;29.40;44.20;;;;;;4985447;28;20059;-69
2021/07/02 10:54:26;;;;;;;4.50;2.88;;;29.60;44.20;;;;;;5037354;28;20040;-69
2021/07/02 10:56:58;;;;;;;5.18;2.83;;;30.30;43.10;;;;;;5029342;28;20047;-70
2021/07/02 10:59:35;;;;;;;4.13;3.38;;;31.10;40.30;;;;;;5034153;28;20038;-69
2021/07/02 11:02:11;;;;;;;4.50;4.10;;;32.20;38.20;;;;;;5008386;28;20033;-69
2021/07/02 11:04:36;;;;;;;4.32;3.70;;;33.40;36.10;;;;;;5049202;28;20109;-69
2021/07/02 11:07:25;;;;;;;4.43;3.60;;;35.00;34.80;;;;;;5043936;28;20069;-70
2021/07/02 11:09:57;;;;;;;5.65;3.40;;;35.40;32.60;;;;;;5030191;28;20038;-70
2021/07/02 11:12:25;;;;;;;4.82;4.53;;;34.10;33.50;;;;;;5028799;28;20045;-69
2021/07/02 11:14:58;;;;;;;9.27;3.50;;;32.60;35.60;;;;;;5030637;28;20045;-69
2021/07/02 11:17:28;;;;;;;7.22;3.10;;;31.00;37.70;;;;;;5040565;28;20033;-62
2021/07/02 11:20:06;;;;;;;3.38;2.85;;;33.20;36.70;;;;;;5048515;28;20036;-70
2021/07/02 11:23:01;;;;;;;3.45;3.22;;;33.80;33.40;;;;;;5005009;28;20037;-69
2021/07/02 11:25:37;;;;;;;2.85;2.60;;;34.40;32.10;;;;;;5038624;28;20037;-69
2021/07/02 11:28:07;;;;;;;4.43;3.00;;;33.90;32.60;;;;;;5022942;28;20037;-69
2021/07/02 11:30:38;;;;;;;4.20;2.83;;;33.40;34.00;;;;;;5047107;28;20065;-69
2021/07/02 11:33:24;;;;;;;4.80;3.45;;;33.50;33.90;;;;;;5045970;28;20049;-69
2021/07/02 11:35:52;;;;;;;6.35;5.20;;;33.50;33.50;;;;;;5039758;28;20208;-70
2021/07/02 11:38:24;;;;;;;5.68;5.15;;;33.60;34.00;;;;;;5034398;28;20095;-69
2021/07/02 11:40:57;;;;;;;6.45;3.05;;;33.10;34.10;;;;;;5033784;28;20174;-69
2021/07/02 11:43:33;;;;;;;4.03;2.83;;;33.00;32.80;;;;;;5045952;28;20037;-70
2021/07/02 11:46:19;;;;;;;3.20;3.00;;;32.80;32.40;;;;;;5025013;28;20056;-69
2021/07/02 11:48:48;;;;;;;6.18;3.30;;;33.20;32.30;;;;;;5046442;28;20041;-70
2021/07/02 11:51:17;;;;;;;3.40;3.10;;;33.20;32.70;;;;;;5029813;28;20049;-69
2021/07/02 11:53:51;;;;;;;3.15;2.78;;;33.40;33.10;;;;;;5046458;28;20038;-69
2021/07/02 11:56:21;;;;;;;3.45;3.10;;;33.80;32.50;;;;;;5039911;28;20116;-69
2021/07/02 11:58:58;;;;;;;4.57;4.15;;;34.00;32.20;;;;;;5027915;28;20107;-69
2021/07/02 12:01:24;;;;;;;3.42;3.17;;;34.30;32.40;;;;;;5042283;28;20033;-70
2021/07/02 12:04:00;;;;;;;4.57;3.60;;;34.70;32.10;;;;;;5027829;28;20040;-70
2021/07/02 12:06:31;;;;;;;7.68;3.40;;;35.70;31.00;;;;;;5025035;28;20038;-68
2021/07/02 12:09:03;;;;;;;4.85;3.50;;;36.40;30.10;;;;;;5044167;28;20052;-70
2021/07/02 12:11:40;;;;;;;6.38;4.07;;;36.80;28.70;;;;;;5048486;28;20553;-69
2021/07/02 12:14:08;;;;;;;4.20;3.80;;;37.70;27.50;;;;;;5039317;28;20152;-70
2021/07/02 12:16:36;;;;;;;7.63;4.03;;;38.20;27.20;;;;;;5026936;28;20141;-70
2021/07/02 12:19:04;;;;;;;3.90;3.55;;;37.50;27.10;;;;;;5022518;28;20321;-69
2021/07/02 12:21:30;;;;;;;4.07;3.53;;;37.40;26.80;;;;;;5026487;28;20029;-69
2021/07/02 12:23:59;;;;;;;4.60;4.22;;;37.80;26.80;;;;;;5028915;28;20037;-69
2021/07/02 12:26:27;;;;;;;4.82;3.38;;;38.00;26.70;;;;;;5032260;28;20087;-70
2021/07/02 12:29:02;;;;;;;4.22;3.00;;;37.80;26.40;;;;;;5029781;28;20063;-70
2021/07/02 12:31:29;;;;;;;5.15;3.20;;;38.30;26.00;;;;;;5025833;28;20090;-70
2021/07/02 12:33:55;;;;;;;3.58;3.15;;;38.20;26.10;;;;;;5031873;28;20029;-57
2021/07/02 12:36:22;;;;;;;8.77;5.70;;;37.80;26.20;;;;;;5029246;28;20148;-70
2021/07/02 12:39:07;;;;;;;7.18;5.90;;;38.00;25.80;;;;;;5041456;28;20045;-70
2021/07/02 12:41:48;;;;;;;3.58;3.17;;;38.30;24.40;;;;;;5023934;28;20041;-70
2021/07/02 12:44:23;;;;;;;4.97;3.97;;;37.80;23.80;;;;;;5035406;28;20512;-70
2021/07/02 12:46:50;;;;;;;5.43;5.03;;;36.00;26.10;;;;;;5020692;28;20122;-69
2021/07/02 12:49:45;;;;;;;4.80;4.50;;;38.60;26.00;;;;;;5049735;28;20039;-70
2021/07/02 12:54:55;;;;;;;5.28;3.60;;;37.00;26.90;;;;;;5043962;28;20124;-69
2021/07/02 12:57:24;;;;;;;3.47;3.20;;;40.10;25.40;;;;;;5029797;28;20051;-70
2021/07/02 13:00:04;;;;;;;5.22;3.80;;;40.80;25.00;;;;;;5026903;28;20055;-70
2021/07/02 13:02:41;;;;;;;6.85;3.50;;;40.90;24.70;;;;;;4996614;28;20553;-69